sensor_id;sensor_type;location;lat;lon;timestamp;P1;durP1;ratioP1;P2;durP2;ratioP2
11431;SDS011;5772;50.940;6.782;2023-02-15T00:01:38;39.00;;;35.37;;
11431;SDS011;5772;50.940;6.782;2023-02-15T00:04:04;39.63;;;36.03;;
11431;SDS011;5772;50.940;6.782;2023-02-15T00:06:30;39.07;;;35.40;;
11431;SDS011;5772;50.940;6.782;2023-02-15T00:08:55;42.53;;;38.53;;
11431;SDS011;5772;50.940;6.782;2023-02-15T00:11:21;41.17;;;37.47;;
11431;SDS011;5772;50.940;6.782;2023-02-15T00:13:46;41.40;;;38.10;;
11431;SDS011;5772;50.940;6.782;2023-02-15T00:16:13;41.47;;;38.00;;
11431;SDS011;5772;50.940;6.782;2023-02-15T00:18:39;42.27;;;38.40;;
11431;SDS011;5772;50.940;6.782;2023-02-15T00:21:04;42.97;;;39.10;;
11431;SDS011;5772;50.940;6.782;2023-02-15T00:23:31;47.00;;;42.27;;
11431;SDS011;5772;50.940;6.782;2023-02-15T00:26:02;39.93;;;36.03;;
11431;SDS011;5772;50.940;6.782;2023-02-15T00:28:29;45.83;;;41.40;;
11431;SDS011;5772;50.940;6.782;2023-02-15T00:30:56;42.80;;;38.17;;
11431;SDS011;5772;50.940;6.782;2023-02-15T00:33:28;40.73;;;36.80;;
11431;SDS011;5772;50.940;6.782;2023-02-15T00:35:55;43.20;;;38.70;;
11431;SDS011;5772;50.940;6.782;2023-02-15T00:38:21;41.90;;;38.10;;
11431;SDS011;5772;50.940;6.782;2023-02-15T00:40:51;41.97;;;38.37;;
11431;SDS011;5772;50.940;6.782;2023-02-15T00:43:17;41.13;;;37.10;;
11431;SDS011;5772;50.940;6.782;2023-02-15T00:45:42;44.17;;;39.73;;
11431;SDS011;5772;50.940;6.782;2023-02-15T00:48:08;44.60;;;40.40;;
11431;SDS011;5772;50.940;6.782;2023-02-15T00:50:34;41.33;;;37.63;;
11431;SDS011;5772;50.940;6.782;2023-02-15T00:53:00;43.57;;;39.50;;
11431;SDS011;5772;50.940;6.782;2023-02-15T00:55:25;43.83;;;39.60;;
11431;SDS011;5772;50.940;6.782;2023-02-15T00:57:50;45.90;;;41.70;;
11431;SDS011;5772;50.940;6.782;2023-02-15T01:00:16;44.90;;;40.57;;
11431;SDS011;5772;50.940;6.782;2023-02-15T01:02:41;44.00;;;39.63;;
11431;SDS011;5772;50.940;6.782;2023-02-15T01:05:07;45.30;;;40.87;;
11431;SDS011;5772;50.940;6.782;2023-02-15T01:07:33;42.97;;;38.83;;
11431;SDS011;5772;50.940;6.782;2023-02-15T01:09:59;43.83;;;39.20;;
11431;SDS011;5772;50.940;6.782;2023-02-15T01:12:24;43.97;;;40.20;;
11431;SDS011;5772;50.940;6.782;2023-02-15T01:14:49;44.30;;;40.20;;
11431;SDS011;5772;50.940;6.782;2023-02-15T01:17:15;45.63;;;41.57;;
11431;SDS011;5772;50.940;6.782;2023-02-15T01:19:40;44.47;;;40.23;;
11431;SDS011;5772;50.940;6.782;2023-02-15T01:22:06;42.13;;;38.43;;
11431;SDS011;5772;50.940;6.782;2023-02-15T01:24:32;43.33;;;38.93;;
11431;SDS011;5772;50.940;6.782;2023-02-15T01:26:58;45.33;;;41.07;;
11431;SDS011;5772;50.940;6.782;2023-02-15T01:29:23;44.03;;;39.63;;
11431;SDS011;5772;50.940;6.782;2023-02-15T01:31:48;42.63;;;38.77;;
11431;SDS011;5772;50.940;6.782;2023-02-15T01:34:14;47.97;;;43.27;;
11431;SDS011;5772;50.940;6.782;2023-02-15T01:36:39;44.17;;;40.20;;
11431;SDS011;5772;50.940;6.782;2023-02-15T01:39:04;44.17;;;40.30;;
11431;SDS011;5772;50.940;6.782;2023-02-15T01:41:31;43.87;;;39.97;;
11431;SDS011;5772;50.940;6.782;2023-02-15T01:43:58;43.40;;;39.47;;
11431;SDS011;5772;50.940;6.782;2023-02-15T01:46:26;44.70;;;40.57;;
11431;SDS011;5772;50.940;6.782;2023-02-15T01:48:54;45.57;;;41.37;;
11431;SDS011;5772;50.940;6.782;2023-02-15T01:51:23;44.30;;;40.43;;
11431;SDS011;5772;50.940;6.782;2023-02-15T01:53:50;48.50;;;44.37;;
11431;SDS011;5772;50.940;6.782;2023-02-15T01:56:23;46.87;;;42.60;;
11431;SDS011;5772;50.940;6.782;2023-02-15T01:58:52;43.77;;;40.07;;
11431;SDS011;5772;50.940;6.782;2023-02-15T02:01:19;48.20;;;44.03;;
11431;SDS011;5772;50.940;6.782;2023-02-15T02:03:46;47.80;;;43.47;;
11431;SDS011;5772;50.940;6.782;2023-02-15T02:06:15;45.53;;;40.83;;
11431;SDS011;5772;50.940;6.782;2023-02-15T02:08:40;43.67;;;39.57;;
11431;SDS011;5772;50.940;6.782;2023-02-15T02:11:09;46.53;;;42.43;;
11431;SDS011;5772;50.940;6.782;2023-02-15T02:13:35;46.73;;;42.30;;
11431;SDS011;5772;50.940;6.782;2023-02-15T02:16:03;46.33;;;41.73;;
11431;SDS011;5772;50.940;6.782;2023-02-15T02:18:35;46.23;;;41.50;;
11431;SDS011;5772;50.940;6.782;2023-02-15T02:21:14;46.00;;;41.90;;
11431;SDS011;5772;50.940;6.782;2023-02-15T02:23:51;45.27;;;41.27;;
11431;SDS011;5772;50.940;6.782;2023-02-15T02:35:18;46.07;;;41.50;;
11431;SDS011;5772;50.940;6.782;2023-02-15T02:37:48;47.37;;;43.03;;
11431;SDS011;5772;50.940;6.782;2023-02-15T02:40:19;45.53;;;41.23;;
11431;SDS011;5772;50.940;6.782;2023-02-15T02:42:49;47.17;;;42.90;;
11431;SDS011;5772;50.940;6.782;2023-02-15T02:45:20;48.30;;;43.80;;
11431;SDS011;5772;50.940;6.782;2023-02-15T02:47:50;45.77;;;41.23;;
11431;SDS011;5772;50.940;6.782;2023-02-15T02:50:21;48.47;;;44.23;;
11431;SDS011;5772;50.940;6.782;2023-02-15T02:52:49;47.40;;;43.03;;
11431;SDS011;5772;50.940;6.782;2023-02-15T02:55:16;48.77;;;44.30;;
11431;SDS011;5772;50.940;6.782;2023-02-15T02:57:46;48.03;;;43.50;;
11431;SDS011;5772;50.940;6.782;2023-02-15T03:00:15;45.10;;;41.13;;
11431;SDS011;5772;50.940;6.782;2023-02-15T03:02:42;51.10;;;46.57;;
11431;SDS011;5772;50.940;6.782;2023-02-15T03:05:12;48.27;;;43.73;;
11431;SDS011;5772;50.940;6.782;2023-02-15T03:07:41;47.07;;;43.10;;
11431;SDS011;5772;50.940;6.782;2023-02-15T03:10:08;46.83;;;42.57;;
11431;SDS011;5772;50.940;6.782;2023-02-15T03:12:34;48.40;;;44.27;;
11431;SDS011;5772;50.940;6.782;2023-02-15T03:15:02;45.70;;;41.93;;
11431;SDS011;5772;50.940;6.782;2023-02-15T03:17:30;47.67;;;43.07;;
11431;SDS011;5772;50.940;6.782;2023-02-15T03:19:57;45.87;;;41.43;;
11431;SDS011;5772;50.940;6.782;2023-02-15T03:22:25;44.97;;;41.27;;
11431;SDS011;5772;50.940;6.782;2023-02-15T03:24:55;47.60;;;43.47;;
11431;SDS011;5772;50.940;6.782;2023-02-15T03:27:22;46.07;;;41.97;;
11431;SDS011;5772;50.940;6.782;2023-02-15T03:29:52;47.67;;;43.20;;
11431;SDS011;5772;50.940;6.782;2023-02-15T03:32:19;49.10;;;43.67;;
11431;SDS011;5772;50.940;6.782;2023-02-15T03:34:44;44.57;;;40.50;;
11431;SDS011;5772;50.940;6.782;2023-02-15T03:37:11;44.53;;;40.47;;
11431;SDS011;5772;50.940;6.782;2023-02-15T03:39:39;45.87;;;40.97;;
11431;SDS011;5772;50.940;6.782;2023-02-15T03:42:10;43.97;;;39.57;;
11431;SDS011;5772;50.940;6.782;2023-02-15T03:44:41;45.03;;;40.23;;
11431;SDS011;5772;50.940;6.782;2023-02-15T03:47:12;41.57;;;37.97;;
11431;SDS011;5772;50.940;6.782;2023-02-15T03:49:39;43.47;;;39.47;;
11431;SDS011;5772;50.940;6.782;2023-02-15T03:52:07;47.10;;;42.70;;
11431;SDS011;5772;50.940;6.782;2023-02-15T03:54:33;43.43;;;39.53;;
11431;SDS011;5772;50.940;6.782;2023-02-15T03:57:00;43.87;;;40.30;;
11431;SDS011;5772;50.940;6.782;2023-02-15T03:59:27;42.63;;;38.00;;
11431;SDS011;5772;50.940;6.782;2023-02-15T04:01:55;39.70;;;36.33;;
11431;SDS011;5772;50.940;6.782;2023-02-15T04:04:26;44.63;;;40.53;;
11431;SDS011;5772;50.940;6.782;2023-02-15T04:06:55;44.13;;;39.70;;
11431;SDS011;5772;50.940;6.782;2023-02-15T04:09:20;40.43;;;37.00;;
11431;SDS011;5772;50.940;6.782;2023-02-15T04:11:46;47.47;;;42.23;;
11431;SDS011;5772;50.940;6.782;2023-02-15T04:14:11;43.17;;;39.30;;
11431;SDS011;5772;50.940;6.782;2023-02-15T04:16:38;44.07;;;39.73;;
11431;SDS011;5772;50.940;6.782;2023-02-15T04:19:03;47.50;;;43.00;;
11431;SDS011;5772;50.940;6.782;2023-02-15T04:21:29;45.70;;;41.43;;
11431;SDS011;5772;50.940;6.782;2023-02-15T04:23:55;43.43;;;39.07;;
11431;SDS011;5772;50.940;6.782;2023-02-15T04:26:20;43.37;;;39.17;;
11431;SDS011;5772;50.940;6.782;2023-02-15T04:28:46;44.87;;;40.30;;
11431;SDS011;5772;50.940;6.782;2023-02-15T04:31:11;44.63;;;40.00;;
11431;SDS011;5772;50.940;6.782;2023-02-15T04:33:38;43.00;;;38.93;;
11431;SDS011;5772;50.940;6.782;2023-02-15T04:36:03;45.13;;;40.80;;
11431;SDS011;5772;50.940;6.782;2023-02-15T04:38:29;43.07;;;39.20;;
11431;SDS011;5772;50.940;6.782;2023-02-15T04:40:55;41.80;;;37.57;;
11431;SDS011;5772;50.940;6.782;2023-02-15T04:43:20;43.87;;;39.63;;
11431;SDS011;5772;50.940;6.782;2023-02-15T04:45:49;42.80;;;38.27;;
11431;SDS011;5772;50.940;6.782;2023-02-15T04:48:14;47.17;;;42.33;;
11431;SDS011;5772;50.940;6.782;2023-02-15T04:50:41;43.27;;;39.47;;
11431;SDS011;5772;50.940;6.782;2023-02-15T04:53:06;44.97;;;40.70;;
11431;SDS011;5772;50.940;6.782;2023-02-15T04:55:32;42.23;;;38.13;;
11431;SDS011;5772;50.940;6.782;2023-02-15T04:57:57;43.23;;;38.70;;
11431;SDS011;5772;50.940;6.782;2023-02-15T05:00:22;45.43;;;41.10;;
11431;SDS011;5772;50.940;6.782;2023-02-15T05:02:48;47.17;;;43.00;;
11431;SDS011;5772;50.940;6.782;2023-02-15T05:05:13;45.47;;;41.00;;
11431;SDS011;5772;50.940;6.782;2023-02-15T05:07:40;43.47;;;39.30;;
11431;SDS011;5772;50.940;6.782;2023-02-15T05:10:06;43.03;;;38.80;;
11431;SDS011;5772;50.940;6.782;2023-02-15T05:12:32;43.20;;;39.40;;
11431;SDS011;5772;50.940;6.782;2023-02-15T05:14:57;46.23;;;41.60;;
11431;SDS011;5772;50.940;6.782;2023-02-15T05:17:23;46.77;;;42.40;;
11431;SDS011;5772;50.940;6.782;2023-02-15T05:19:48;44.60;;;40.50;;
11431;SDS011;5772;50.940;6.782;2023-02-15T05:22:14;46.10;;;41.73;;
11431;SDS011;5772;50.940;6.782;2023-02-15T05:24:40;43.93;;;39.77;;
11431;SDS011;5772;50.940;6.782;2023-02-15T05:27:06;43.10;;;39.03;;
11431;SDS011;5772;50.940;6.782;2023-02-15T05:29:31;44.13;;;39.97;;
11431;SDS011;5772;50.940;6.782;2023-02-15T05:31:56;43.47;;;39.27;;
11431;SDS011;5772;50.940;6.782;2023-02-15T05:34:22;43.10;;;39.10;;
11431;SDS011;5772;50.940;6.782;2023-02-15T05:36:47;42.47;;;38.60;;
11431;SDS011;5772;50.940;6.782;2023-02-15T05:39:13;46.90;;;42.03;;
11431;SDS011;5772;50.940;6.782;2023-02-15T05:41:39;43.77;;;39.93;;
11431;SDS011;5772;50.940;6.782;2023-02-15T05:44:05;42.63;;;38.63;;
11431;SDS011;5772;50.940;6.782;2023-02-15T05:46:30;42.67;;;38.80;;
11431;SDS011;5772;50.940;6.782;2023-02-15T05:48:55;42.77;;;38.40;;
11431;SDS011;5772;50.940;6.782;2023-02-15T05:51:21;45.10;;;40.83;;
11431;SDS011;5772;50.940;6.782;2023-02-15T05:53:46;42.67;;;38.47;;
11431;SDS011;5772;50.940;6.782;2023-02-15T05:56:12;41.73;;;37.93;;
11431;SDS011;5772;50.940;6.782;2023-02-15T05:58:39;40.10;;;36.23;;
11431;SDS011;5772;50.940;6.782;2023-02-15T06:01:08;42.97;;;39.03;;
11431;SDS011;5772;50.940;6.782;2023-02-15T06:03:34;43.27;;;39.43;;
11431;SDS011;5772;50.940;6.782;2023-02-15T06:05:59;44.33;;;40.47;;
11431;SDS011;5772;50.940;6.782;2023-02-15T06:08:24;47.47;;;43.17;;
11431;SDS011;5772;50.940;6.782;2023-02-15T06:10:50;44.93;;;39.80;;
11431;SDS011;5772;50.940;6.782;2023-02-15T06:13:15;43.43;;;39.90;;
11431;SDS011;5772;50.940;6.782;2023-02-15T06:15:42;44.13;;;40.23;;
11431;SDS011;5772;50.940;6.782;2023-02-15T06:18:07;44.10;;;39.90;;
11431;SDS011;5772;50.940;6.782;2023-02-15T06:20:32;43.03;;;38.83;;
11431;SDS011;5772;50.940;6.782;2023-02-15T06:22:58;42.27;;;38.27;;
11431;SDS011;5772;50.940;6.782;2023-02-15T06:25:23;44.87;;;40.27;;
11431;SDS011;5772;50.940;6.782;2023-02-15T06:27:49;42.17;;;38.23;;
11431;SDS011;5772;50.940;6.782;2023-02-15T06:30:14;43.23;;;39.23;;
11431;SDS011;5772;50.940;6.782;2023-02-15T06:32:41;41.30;;;37.83;;
11431;SDS011;5772;50.940;6.782;2023-02-15T06:35:06;45.30;;;40.53;;
11431;SDS011;5772;50.940;6.782;2023-02-15T06:37:32;41.90;;;37.80;;
11431;SDS011;5772;50.940;6.782;2023-02-15T06:39:57;42.23;;;38.67;;
11431;SDS011;5772;50.940;6.782;2023-02-15T06:42:23;43.10;;;39.43;;
11431;SDS011;5772;50.940;6.782;2023-02-15T06:44:49;43.40;;;39.47;;
11431;SDS011;5772;50.940;6.782;2023-02-15T06:47:14;44.93;;;40.93;;
11431;SDS011;5772;50.940;6.782;2023-02-15T06:49:41;45.53;;;41.53;;
11431;SDS011;5772;50.940;6.782;2023-02-15T06:52:06;44.30;;;40.13;;
11431;SDS011;5772;50.940;6.782;2023-02-15T06:54:32;42.53;;;38.60;;
11431;SDS011;5772;50.940;6.782;2023-02-15T06:56:57;43.47;;;39.33;;
11431;SDS011;5772;50.940;6.782;2023-02-15T06:59:22;44.20;;;40.30;;
11431;SDS011;5772;50.940;6.782;2023-02-15T07:01:48;43.50;;;39.33;;
11431;SDS011;5772;50.940;6.782;2023-02-15T07:04:13;42.83;;;39.00;;
11431;SDS011;5772;50.940;6.782;2023-02-15T07:06:40;43.60;;;39.37;;
11431;SDS011;5772;50.940;6.782;2023-02-15T07:09:05;43.90;;;40.00;;
11431;SDS011;5772;50.940;6.782;2023-02-15T07:11:31;47.90;;;42.33;;
11431;SDS011;5772;50.940;6.782;2023-02-15T07:13:56;46.03;;;41.63;;
11431;SDS011;5772;50.940;6.782;2023-02-15T07:16:22;40.63;;;37.33;;
11431;SDS011;5772;50.940;6.782;2023-02-15T07:18:47;41.90;;;38.17;;
11431;SDS011;5772;50.940;6.782;2023-02-15T07:21:12;44.10;;;40.13;;
11431;SDS011;5772;50.940;6.782;2023-02-15T07:23:39;47.73;;;43.83;;
11431;SDS011;5772;50.940;6.782;2023-02-15T07:26:05;42.13;;;39.10;;
11431;SDS011;5772;50.940;6.782;2023-02-15T07:28:31;44.50;;;40.53;;
11431;SDS011;5772;50.940;6.782;2023-02-15T07:30:56;42.77;;;38.97;;
11431;SDS011;5772;50.940;6.782;2023-02-15T07:33:22;46.53;;;42.30;;
11431;SDS011;5772;50.940;6.782;2023-02-15T07:35:47;46.80;;;42.90;;
11431;SDS011;5772;50.940;6.782;2023-02-15T07:38:13;50.10;;;46.10;;
11431;SDS011;5772;50.940;6.782;2023-02-15T07:40:39;45.20;;;41.57;;
11431;SDS011;5772;50.940;6.782;2023-02-15T07:43:05;46.43;;;42.87;;
11431;SDS011;5772;50.940;6.782;2023-02-15T07:45:30;48.20;;;44.33;;
11431;SDS011;5772;50.940;6.782;2023-02-15T07:47:55;38.13;;;35.07;;
11431;SDS011;5772;50.940;6.782;2023-02-15T07:50:21;38.93;;;35.73;;
11431;SDS011;5772;50.940;6.782;2023-02-15T07:52:46;39.03;;;35.63;;
11431;SDS011;5772;50.940;6.782;2023-02-15T07:55:12;35.20;;;32.50;;
11431;SDS011;5772;50.940;6.782;2023-02-15T07:57:38;32.13;;;29.57;;
11431;SDS011;5772;50.940;6.782;2023-02-15T08:00:07;32.53;;;30.00;;
11431;SDS011;5772;50.940;6.782;2023-02-15T08:02:33;36.93;;;34.33;;
11431;SDS011;5772;50.940;6.782;2023-02-15T08:04:58;33.67;;;31.07;;
11431;SDS011;5772;50.940;6.782;2023-02-15T08:07:24;33.13;;;30.43;;
11431;SDS011;5772;50.940;6.782;2023-02-15T08:09:49;30.03;;;27.67;;
11431;SDS011;5772;50.940;6.782;2023-02-15T08:12:14;30.57;;;27.60;;
11431;SDS011;5772;50.940;6.782;2023-02-15T08:14:41;30.70;;;27.83;;
11431;SDS011;5772;50.940;6.782;2023-02-15T08:17:07;29.67;;;27.00;;
11431;SDS011;5772;50.940;6.782;2023-02-15T08:19:32;32.60;;;30.07;;
11431;SDS011;5772;50.940;6.782;2023-02-15T08:22:00;31.47;;;29.17;;
11431;SDS011;5772;50.940;6.782;2023-02-15T08:24:27;34.17;;;31.53;;
11431;SDS011;5772;50.940;6.782;2023-02-15T08:26:53;31.57;;;29.33;;
11431;SDS011;5772;50.940;6.782;2023-02-15T08:29:20;29.57;;;27.27;;
11431;SDS011;5772;50.940;6.782;2023-02-15T08:31:47;27.33;;;25.30;;
11431;SDS011;5772;50.940;6.782;2023-02-15T08:34:13;27.70;;;25.43;;
11431;SDS011;5772;50.940;6.782;2023-02-15T08:36:41;27.97;;;25.67;;
11431;SDS011;5772;50.940;6.782;2023-02-15T08:39:07;31.23;;;28.53;;
11431;SDS011;5772;50.940;6.782;2023-02-15T08:41:33;28.97;;;26.87;;
11431;SDS011;5772;50.940;6.782;2023-02-15T08:44:00;30.20;;;28.00;;
11431;SDS011;5772;50.940;6.782;2023-02-15T08:46:27;29.70;;;27.30;;
11431;SDS011;5772;50.940;6.782;2023-02-15T08:48:55;29.77;;;27.57;;
11431;SDS011;5772;50.940;6.782;2023-02-15T08:51:22;27.73;;;25.70;;
11431;SDS011;5772;50.940;6.782;2023-02-15T08:53:49;27.87;;;25.67;;
11431;SDS011;5772;50.940;6.782;2023-02-15T08:56:16;26.43;;;24.20;;
11431;SDS011;5772;50.940;6.782;2023-02-15T08:58:42;26.30;;;24.30;;
11431;SDS011;5772;50.940;6.782;2023-02-15T09:01:08;25.57;;;23.60;;
11431;SDS011;5772;50.940;6.782;2023-02-15T09:03:34;26.20;;;24.10;;
11431;SDS011;5772;50.940;6.782;2023-02-15T09:06:01;25.50;;;23.50;;
11431;SDS011;5772;50.940;6.782;2023-02-15T09:08:27;27.23;;;24.73;;
11431;SDS011;5772;50.940;6.782;2023-02-15T09:10:53;25.60;;;23.37;;
11431;SDS011;5772;50.940;6.782;2023-02-15T09:13:20;25.57;;;23.67;;
11431;SDS011;5772;50.940;6.782;2023-02-15T09:15:49;24.87;;;22.97;;
11431;SDS011;5772;50.940;6.782;2023-02-15T09:18:15;26.70;;;24.40;;
11431;SDS011;5772;50.940;6.782;2023-02-15T09:20:43;26.53;;;24.40;;
11431;SDS011;5772;50.940;6.782;2023-02-15T09:23:10;25.43;;;23.43;;
11431;SDS011;5772;50.940;6.782;2023-02-15T09:25:36;24.80;;;22.70;;
11431;SDS011;5772;50.940;6.782;2023-02-15T09:28:03;24.57;;;22.77;;
11431;SDS011;5772;50.940;6.782;2023-02-15T09:30:29;25.10;;;23.17;;
11431;SDS011;5772;50.940;6.782;2023-02-15T09:32:54;24.93;;;22.73;;
11431;SDS011;5772;50.940;6.782;2023-02-15T09:35:19;25.03;;;22.77;;
11431;SDS011;5772;50.940;6.782;2023-02-15T09:37:45;25.07;;;23.07;;
11431;SDS011;5772;50.940;6.782;2023-02-15T09:40:12;25.63;;;23.40;;
11431;SDS011;5772;50.940;6.782;2023-02-15T09:42:47;24.77;;;22.70;;
11431;SDS011;5772;50.940;6.782;2023-02-15T09:45:24;23.90;;;22.17;;
11431;SDS011;5772;50.940;6.782;2023-02-15T09:51:01;25.47;;;23.23;;
11431;SDS011;5772;50.940;6.782;2023-02-15T09:53:38;25.47;;;23.30;;
11431;SDS011;5772;50.940;6.782;2023-02-15T09:56:14;25.67;;;23.67;;
11431;SDS011;5772;50.940;6.782;2023-02-15T09:58:46;23.93;;;22.03;;
11431;SDS011;5772;50.940;6.782;2023-02-15T10:01:19;24.63;;;22.63;;
11431;SDS011;5772;50.940;6.782;2023-02-15T10:03:52;25.80;;;23.97;;
11431;SDS011;5772;50.940;6.782;2023-02-15T10:06:30;25.47;;;23.77;;
11431;SDS011;5772;50.940;6.782;2023-02-15T10:09:13;25.03;;;23.13;;
11431;SDS011;5772;50.940;6.782;2023-02-15T10:11:54;27.03;;;25.00;;
11431;SDS011;5772;50.940;6.782;2023-02-15T10:14:33;23.57;;;21.90;;
11431;SDS011;5772;50.940;6.782;2023-02-15T10:17:13;23.33;;;21.43;;
11431;SDS011;5772;50.940;6.782;2023-02-15T10:19:47;23.10;;;21.27;;
11431;SDS011;5772;50.940;6.782;2023-02-15T10:22:23;22.77;;;20.90;;
11431;SDS011;5772;50.940;6.782;2023-02-15T10:25:09;22.10;;;20.47;;
11431;SDS011;5772;50.940;6.782;2023-02-15T10:27:43;23.00;;;21.27;;
11431;SDS011;5772;50.940;6.782;2023-02-15T10:30:11;23.77;;;21.87;;
11431;SDS011;5772;50.940;6.782;2023-02-15T10:32:38;24.30;;;22.47;;
11431;SDS011;5772;50.940;6.782;2023-02-15T10:35:09;22.57;;;20.77;;
11431;SDS011;5772;50.940;6.782;2023-02-15T10:37:53;23.07;;;21.07;;
11431;SDS011;5772;50.940;6.782;2023-02-15T10:40:28;24.67;;;22.67;;
11431;SDS011;5772;50.940;6.782;2023-02-15T10:43:03;22.83;;;21.13;;
11431;SDS011;5772;50.940;6.782;2023-02-15T10:45:37;24.23;;;22.43;;
11431;SDS011;5772;50.940;6.782;2023-02-15T10:48:21;24.70;;;22.60;;
11431;SDS011;5772;50.940;6.782;2023-02-15T10:50:50;23.87;;;22.00;;
11431;SDS011;5772;50.940;6.782;2023-02-15T10:53:29;21.50;;;20.03;;
11431;SDS011;5772;50.940;6.782;2023-02-15T10:56:03;24.13;;;22.13;;
11431;SDS011;5772;50.940;6.782;2023-02-15T10:58:41;24.63;;;22.53;;
11431;SDS011;5772;50.940;6.782;2023-02-15T11:01:13;24.67;;;22.53;;
11431;SDS011;5772;50.940;6.782;2023-02-15T11:03:47;22.90;;;21.10;;
11431;SDS011;5772;50.940;6.782;2023-02-15T11:06:23;22.40;;;20.63;;
11431;SDS011;5772;50.940;6.782;2023-02-15T11:08:53;20.93;;;19.33;;
11431;SDS011;5772;50.940;6.782;2023-02-15T11:11:21;21.93;;;20.20;;
11431;SDS011;5772;50.940;6.782;2023-02-15T11:13:50;21.27;;;19.30;;
11431;SDS011;5772;50.940;6.782;2023-02-15T11:16:18;22.07;;;20.57;;
11431;SDS011;5772;50.940;6.782;2023-02-15T11:18:47;24.10;;;22.30;;
11431;SDS011;5772;50.940;6.782;2023-02-15T11:21:17;22.93;;;21.33;;
11431;SDS011;5772;50.940;6.782;2023-02-15T11:23:45;24.00;;;22.10;;
11431;SDS011;5772;50.940;6.782;2023-02-15T11:26:13;23.90;;;21.70;;
11431;SDS011;5772;50.940;6.782;2023-02-15T11:28:52;22.47;;;20.60;;
11431;SDS011;5772;50.940;6.782;2023-02-15T11:31:21;22.53;;;20.93;;
11431;SDS011;5772;50.940;6.782;2023-02-15T11:33:48;22.63;;;20.97;;
11431;SDS011;5772;50.940;6.782;2023-02-15T11:36:17;23.23;;;21.53;;
11431;SDS011;5772;50.940;6.782;2023-02-15T11:38:44;24.17;;;22.37;;
11431;SDS011;5772;50.940;6.782;2023-02-15T11:41:11;23.57;;;21.80;;
11431;SDS011;5772;50.940;6.782;2023-02-15T11:43:39;23.93;;;22.13;;
11431;SDS011;5772;50.940;6.782;2023-02-15T11:46:10;23.10;;;20.87;;
11431;SDS011;5772;50.940;6.782;2023-02-15T11:48:36;22.17;;;20.37;;
11431;SDS011;5772;50.940;6.782;2023-02-15T11:51:02;23.27;;;21.23;;
11431;SDS011;5772;50.940;6.782;2023-02-15T11:53:28;23.80;;;22.20;;
11431;SDS011;5772;50.940;6.782;2023-02-15T11:55:57;24.33;;;22.13;;
11431;SDS011;5772;50.940;6.782;2023-02-15T11:58:25;23.53;;;21.83;;
11431;SDS011;5772;50.940;6.782;2023-02-15T12:00:54;22.57;;;20.70;;
11431;SDS011;5772;50.940;6.782;2023-02-15T12:03:24;21.90;;;20.33;;
11431;SDS011;5772;50.940;6.782;2023-02-15T12:05:53;22.03;;;20.27;;
11431;SDS011;5772;50.940;6.782;2023-02-15T12:08:22;19.97;;;18.47;;
11431;SDS011;5772;50.940;6.782;2023-02-15T12:10:55;20.40;;;18.97;;
11431;SDS011;5772;50.940;6.782;2023-02-15T12:13:22;21.83;;;19.70;;
11431;SDS011;5772;50.940;6.782;2023-02-15T12:15:48;20.37;;;18.93;;
11431;SDS011;5772;50.940;6.782;2023-02-15T12:18:19;22.93;;;20.90;;
11431;SDS011;5772;50.940;6.782;2023-02-15T12:20:48;22.40;;;20.87;;
11431;SDS011;5772;50.940;6.782;2023-02-15T12:23:14;21.57;;;19.77;;
11431;SDS011;5772;50.940;6.782;2023-02-15T12:25:41;22.73;;;20.93;;
11431;SDS011;5772;50.940;6.782;2023-02-15T12:28:15;23.00;;;21.27;;
11431;SDS011;5772;50.940;6.782;2023-02-15T12:30:47;22.50;;;20.90;;
11431;SDS011;5772;50.940;6.782;2023-02-15T12:33:13;20.77;;;19.27;;
11431;SDS011;5772;50.940;6.782;2023-02-15T12:35:42;22.17;;;20.67;;
11431;SDS011;5772;50.940;6.782;2023-02-15T12:38:21;21.73;;;20.03;;
11431;SDS011;5772;50.940;6.782;2023-02-15T12:40:56;20.93;;;19.40;;
11431;SDS011;5772;50.940;6.782;2023-02-15T12:43:24;22.70;;;20.87;;
11431;SDS011;5772;50.940;6.782;2023-02-15T12:45:50;23.07;;;21.17;;
11431;SDS011;5772;50.940;6.782;2023-02-15T12:48:17;22.53;;;20.60;;
11431;SDS011;5772;50.940;6.782;2023-02-15T12:50:43;23.27;;;21.33;;
11431;SDS011;5772;50.940;6.782;2023-02-15T12:53:14;22.93;;;21.13;;
11431;SDS011;5772;50.940;6.782;2023-02-15T12:55:49;24.10;;;22.33;;
11431;SDS011;5772;50.940;6.782;2023-02-15T12:58:16;23.93;;;21.50;;
11431;SDS011;5772;50.940;6.782;2023-02-15T13:00:43;21.27;;;19.67;;
11431;SDS011;5772;50.940;6.782;2023-02-15T13:03:15;23.83;;;21.83;;
11431;SDS011;5772;50.940;6.782;2023-02-15T13:05:42;23.90;;;21.80;;
11431;SDS011;5772;50.940;6.782;2023-02-15T13:08:09;21.10;;;19.40;;
11431;SDS011;5772;50.940;6.782;2023-02-15T13:10:39;21.20;;;19.60;;
11431;SDS011;5772;50.940;6.782;2023-02-15T13:13:09;21.30;;;19.77;;
11431;SDS011;5772;50.940;6.782;2023-02-15T13:15:36;19.20;;;17.90;;
11431;SDS011;5772;50.940;6.782;2023-02-15T13:18:03;20.57;;;18.90;;
11431;SDS011;5772;50.940;6.782;2023-02-15T13:20:29;20.80;;;19.30;;
11431;SDS011;5772;50.940;6.782;2023-02-15T13:22:57;20.47;;;18.97;;
11431;SDS011;5772;50.940;6.782;2023-02-15T13:25:24;22.73;;;21.03;;
11431;SDS011;5772;50.940;6.782;2023-02-15T13:27:52;22.23;;;20.57;;
11431;SDS011;5772;50.940;6.782;2023-02-15T13:30:22;23.27;;;21.67;;
11431;SDS011;5772;50.940;6.782;2023-02-15T13:32:49;23.00;;;21.43;;
11431;SDS011;5772;50.940;6.782;2023-02-15T13:35:17;23.47;;;21.47;;
11431;SDS011;5772;50.940;6.782;2023-02-15T13:37:50;22.50;;;21.07;;
11431;SDS011;5772;50.940;6.782;2023-02-15T13:40:40;23.03;;;21.57;;
11431;SDS011;5772;50.940;6.782;2023-02-15T13:43:15;21.87;;;20.27;;
11431;SDS011;5772;50.940;6.782;2023-02-15T13:45:53;22.80;;;21.17;;
11431;SDS011;5772;50.940;6.782;2023-02-15T13:48:23;22.47;;;20.87;;
11431;SDS011;5772;50.940;6.782;2023-02-15T13:51:01;23.37;;;21.33;;
11431;SDS011;5772;50.940;6.782;2023-02-15T13:53:53;22.80;;;21.27;;
11431;SDS011;5772;50.940;6.782;2023-02-15T13:56:33;22.03;;;20.33;;
11431;SDS011;5772;50.940;6.782;2023-02-15T13:59:10;21.13;;;19.60;;
11431;SDS011;5772;50.940;6.782;2023-02-15T14:01:45;22.47;;;20.43;;
11431;SDS011;5772;50.940;6.782;2023-02-15T14:04:25;22.97;;;21.17;;
11431;SDS011;5772;50.940;6.782;2023-02-15T14:07:08;23.13;;;21.43;;
11431;SDS011;5772;50.940;6.782;2023-02-15T14:09:47;23.63;;;21.83;;
11431;SDS011;5772;50.940;6.782;2023-02-15T14:12:24;44.80;;;40.90;;
11431;SDS011;5772;50.940;6.782;2023-02-15T14:15:02;24.27;;;21.87;;
11431;SDS011;5772;50.940;6.782;2023-02-15T14:17:35;23.90;;;22.00;;
11431;SDS011;5772;50.940;6.782;2023-02-15T14:20:07;22.23;;;20.83;;
11431;SDS011;5772;50.940;6.782;2023-02-15T14:22:40;25.07;;;23.30;;
11431;SDS011;5772;50.940;6.782;2023-02-15T14:25:14;24.93;;;23.20;;
11431;SDS011;5772;50.940;6.782;2023-02-15T14:27:45;23.83;;;22.47;;
11431;SDS011;5772;50.940;6.782;2023-02-15T14:30:17;25.47;;;23.70;;
11431;SDS011;5772;50.940;6.782;2023-02-15T14:32:45;23.97;;;22.30;;
11431;SDS011;5772;50.940;6.782;2023-02-15T14:35:13;23.37;;;21.83;;
11431;SDS011;5772;50.940;6.782;2023-02-15T14:37:40;21.60;;;20.10;;
11431;SDS011;5772;50.940;6.782;2023-02-15T14:40:08;22.43;;;20.70;;
11431;SDS011;5772;50.940;6.782;2023-02-15T14:42:39;22.17;;;20.57;;
11431;SDS011;5772;50.940;6.782;2023-02-15T14:45:14;21.93;;;20.40;;
11431;SDS011;5772;50.940;6.782;2023-02-15T14:47:44;23.27;;;21.37;;
11431;SDS011;5772;50.940;6.782;2023-02-15T14:50:35;24.10;;;22.07;;
11431;SDS011;5772;50.940;6.782;2023-02-15T14:53:15;23.37;;;21.43;;